Timonium, Maryland
Current Conditions -  °F | °C
As of 12:55 PM on Friday 24 Oct 2014 (Local Time) from KMTN Reporting Station
Scattered Clouds Scattered Clouds  
Wind Chill: 63°   Ceiling: Unl
Heat Index: 63°   Visibility: 10mi
Dew Point: 46°   Wind: 16mph
Humidity: 55%   Direction: 270°W
Pressure: 29.91"   Gusts: 24mph
Location:  39.4211°N, 76.6266°W
Report Text: KMTN 241655Z 27014G21KT 10SM SCT120 SCT200 17/08 A2991
Loading
Personal Weather Stations






























Interactive Weather Map New forecast layout! Learn more

10-Day Weather Forecast

Advertisements
Track Severe Weather on mobile